Terminal Aerodrome Forecast
Issued by NWS Bismarck, ND

Home | Current Version | Previous Version | Graphics & Text | Print | Product List | Glossary On
Versions: 1 2 3 4 5 6 7 8 9 10 11 12 13
927
FTUS43 KBIS 251730
TAFISN
TAF
KISN 251730Z 2518/2618 24010KT P6SM BKN250
     FM252100 27009KT P6SM BKN200
     FM260800 00000KT P6SM BKN130
     FM261600 28006KT P6SM SCT200=

USA.gov is the U.S. government's official web portal to all federal, state and local government web resources and services.